Twister+rt5 — LZA2346 — position and weather

sailwx.info

Track history (hours):
 
Tides and Currents Weather Stations Pressure Air Temp Water Temp Dewpoint Dewpoint Depression Visibility Wind Speed Wind Dir Waves Ship Positions

Twister+rt5

Last reported at 2018-Jan-10 15:55 UTC. Time now 2018-Jan-18 00:19 UTC.
Position N 48°11' E 016°28'.

Length 90 m; draft 2.1 m.

Type: Ship. MMSI: 207072346.

Date/timePositionNaut miles runAvg speedWind from/ knotsBaromVisibWave heightAir tempDewpointWater temp
2018-Jan-10 15:55N 48°11' E 016°28'16 2.7
2018-Jan-10 10:02N 48°07' E 016°51'0 2.8
2018-Jan-10 09:59N 48°07' E 016°51'2 2.9
2018-Jan-10 09:25N 48°08' E 016°53'1 3.1
2018-Jan-10 08:59N 48°09' E 016°55'1 2.9
2018-Jan-10 08:30N 48°09' E 016°57'1 2.9
2018-Jan-10 08:00N 48°10' E 016°58'1 2.7
2018-Jan-10 07:30N 48°10' E 016°60'2 3.2
2018-Jan-10 07:00N 48°09' E 017°01'1 2.9
2018-Jan-10 06:30N 48°09' E 017°03'2 3.4
2018-Jan-10 06:00N 48°08' E 017°06'2 3.5
2018-Jan-10 05:30N 48°08' E 017°09'2 3.5
2018-Jan-10 05:01N 48°06' E 017°08'2 4.9
2018-Jan-10 04:30N 48°04' E 017°10'1 1.8
2018-Jan-10 04:00N 48°03' E 017°11'0 0.0
2018-Jan-10 03:30N 48°03' E 017°11'0 0.0
2018-Jan-10 03:00N 48°03' E 017°11'0 0.0
2018-Jan-10 02:30N 48°03' E 017°11'0 0.0
2018-Jan-10 02:00N 48°03' E 017°11'0 0.0
2018-Jan-10 01:30N 48°03' E 017°11'0 0.0
2018-Jan-10 01:00N 48°03' E 017°11'0 0.0
2018-Jan-10 00:30N 48°03' E 017°11'0 0.0
2018-Jan-10 00:00N 48°03' E 017°11'0 0.0
2018-Jan-09 23:30N 48°03' E 017°11'0 0.0
2018-Jan-09 23:00N 48°03' E 017°11'0 0.0
2018-Jan-09 22:30N 48°03' E 017°11'0 0.0
2018-Jan-09 22:00N 48°03' E 017°11'0 0.0
2018-Jan-09 21:30N 48°03' E 017°11'0 0.0
2018-Jan-09 21:00N 48°03' E 017°11'0 0.0
2018-Jan-09 20:30N 48°03' E 017°11'0 0.0
2018-Jan-09 20:00N 48°03' E 017°11'0 0.0
2018-Jan-09 19:30N 48°03' E 017°11'0 0.0
2018-Jan-09 19:00N 48°03' E 017°11'0 0.0
2018-Jan-09 18:30N 48°03' E 017°11'0 0.0
2018-Jan-09 18:00N 48°03' E 017°11'0 0.0
2018-Jan-09 17:30N 48°03' E 017°11'0 0.0
2018-Jan-09 17:00N 48°03' E 017°11'0 0.0
2018-Jan-09 16:30N 48°03' E 017°11'0 0.0
2018-Jan-09 16:00N 48°03' E 017°11'0 0.0
2018-Jan-09 15:30N 48°03' E 017°11'0 0.0
2018-Jan-09 15:00N 48°03' E 017°11'0 0.0
2018-Jan-09 14:30N 48°03' E 017°11'0 0.0
2018-Jan-09 14:00N 48°03' E 017°11'0 0.0
2018-Jan-09 13:30N 48°03' E 017°11'0 0.0
2018-Jan-09 13:00N 48°03' E 017°11'0 0.0
2018-Jan-09 12:30N 48°03' E 017°11'0 0.0
2018-Jan-09 12:00N 48°03' E 017°11'0 0.0
2018-Jan-09 11:30N 48°03' E 017°11'0 0.0
2018-Jan-09 11:00N 48°03' E 017°11'0 0.0
2018-Jan-09 10:30N 48°03' E 017°11'0 0.0
2018-Jan-09 10:00N 48°03' E 017°11'0 0.0
2018-Jan-09 09:30N 48°03' E 017°11'0 0.0
2018-Jan-09 09:00N 48°03' E 017°11'0 0.0
2018-Jan-09 08:30N 48°03' E 017°11'0 0.0
2018-Jan-09 08:00N 48°03' E 017°11'0 0.0
2018-Jan-09 07:30N 48°03' E 017°11'0 0.0
2018-Jan-09 07:00N 48°03' E 017°11'0 0.0
2018-Jan-09 06:30N 48°03' E 017°11'0 0.0
2018-Jan-09 06:00N 48°03' E 017°11'0 0.0
2018-Jan-09 05:30N 48°03' E 017°11'0 0.0
2018-Jan-09 05:00N 48°03' E 017°11'0 0.0
2018-Jan-09 04:30N 48°03' E 017°11'0 0.0
2018-Jan-09 04:00N 48°03' E 017°11'0 0.0
2018-Jan-09 03:30N 48°03' E 017°11'0 0.0
2018-Jan-09 03:00N 48°03' E 017°11'0 0.0
2018-Jan-09 02:30N 48°03' E 017°11'0 0.0
2018-Jan-09 02:00N 48°03' E 017°11'0 0.0
2018-Jan-09 01:30N 48°03' E 017°11'0 0.0
2018-Jan-09 01:00N 48°03' E 017°11'0 0.0
2018-Jan-09 00:30N 48°03' E 017°11'0 0.0
2018-Jan-09 00:00N 48°03' E 017°11'0 0.0
2018-Jan-08 23:30N 48°03' E 017°11'0 0.0
2018-Jan-08 23:00N 48°03' E 017°11'0 0.0
2018-Jan-08 22:30N 48°03' E 017°11'0 0.0
2018-Jan-08 22:00N 48°03' E 017°11'0 0.0
2018-Jan-08 21:30N 48°03' E 017°11'0 0.0
2018-Jan-08 21:00N 48°03' E 017°11'0 0.0
2018-Jan-08 20:30N 48°03' E 017°11'0 0.0
2018-Jan-08 20:00N 48°03' E 017°11'0 0.0
2018-Jan-08 19:30N 48°03' E 017°11'0 0.0
2018-Jan-08 19:00N 48°03' E 017°11'0 0.0
2018-Jan-08 18:30N 48°03' E 017°11'0 0.0
2018-Jan-08 18:00N 48°03' E 017°11'0 0.0
2018-Jan-08 17:30N 48°03' E 017°11'0 0.0
2018-Jan-08 17:00N 48°03' E 017°11'0 0.0
2018-Jan-08 16:30N 48°03' E 017°11'0 0.0
2018-Jan-08 16:00N 48°03' E 017°11'0 0.0
2018-Jan-08 15:30N 48°03' E 017°11'0 0.0
2018-Jan-08 15:00N 48°03' E 017°11'0 0.0
2018-Jan-08 14:30N 48°03' E 017°11'0 0.0
2018-Jan-08 14:00N 48°03' E 017°11'0 0.0
2018-Jan-08 13:30N 48°03' E 017°11'0 0.0
2018-Jan-08 13:00N 48°03' E 017°11'0 0.0
2018-Jan-08 12:30N 48°03' E 017°11'0 0.0
2018-Jan-08 12:00N 48°03' E 017°11'0 0.0
2018-Jan-08 11:30N 48°03' E 017°11'0 0.0
2018-Jan-08 11:00N 48°03' E 017°11'0 0.0
2018-Jan-08 10:30N 48°03' E 017°11'0 0.0
2018-Jan-08 10:00N 48°03' E 017°11'0 0.0
2018-Jan-08 09:30N 48°03' E 017°11'0 0.0
2018-Jan-08 09:00N 48°03' E 017°11'0 0.0
2018-Jan-08 08:30N 48°03' E 017°11'0 0.0
2018-Jan-08 08:00N 48°03' E 017°11'0 0.0
2018-Jan-08 07:30N 48°03' E 017°11'0 0.0
2018-Jan-08 07:00N 48°03' E 017°11'0 0.0
2018-Jan-08 06:30N 48°03' E 017°11'0 0.0
2018-Jan-08 06:00N 48°03' E 017°11'0 0.0
2018-Jan-08 05:30N 48°03' E 017°11'0 0.0
2018-Jan-08 05:00N 48°03' E 017°11'0 0.0
2018-Jan-08 04:30N 48°03' E 017°11'0 0.0
2018-Jan-08 04:00N 48°03' E 017°11'0 0.0
2018-Jan-08 03:30N 48°03' E 017°11'0 0.0
2018-Jan-08 03:00N 48°03' E 017°11'0 0.0
2018-Jan-08 02:30N 48°03' E 017°11'0 0.0
2018-Jan-08 02:00N 48°03' E 017°11'0 0.0
2018-Jan-08 01:30N 48°03' E 017°11'0 0.0
2018-Jan-08 01:00N 48°03' E 017°11'0 0.0
2018-Jan-08 00:30N 48°03' E 017°11'0 0.0
2018-Jan-08 00:00N 48°03' E 017°11'0 0.0
2018-Jan-07 23:30N 48°03' E 017°11'0 0.0
2018-Jan-07 23:00N 48°03' E 017°11'0 0.0
2018-Jan-07 22:30N 48°03' E 017°11'0 0.0
2018-Jan-07 22:00N 48°03' E 017°11'0 0.0
2018-Jan-07 21:30N 48°03' E 017°11'0 0.0
2018-Jan-07 21:00N 48°03' E 017°11'0 0.0
2018-Jan-07 20:30N 48°03' E 017°11'0 0.0
2018-Jan-07 20:00N 48°03' E 017°11'0 0.0
2018-Jan-07 19:30N 48°03' E 017°11'0 0.0
2018-Jan-07 19:00N 48°03' E 017°11'0 0.0
2018-Jan-07 18:30N 48°03' E 017°11'0 0.0
2018-Jan-07 18:00N 48°03' E 017°11'0 0.0
2018-Jan-07 17:30N 48°03' E 017°11'0 0.0
2018-Jan-07 17:00N 48°03' E 017°11'0 0.0
2018-Jan-07 16:30N 48°03' E 017°11'0 0.0
2018-Jan-07 16:00N 48°03' E 017°11'0 0.0
2018-Jan-07 15:30N 48°03' E 017°11'0 0.0
2018-Jan-07 15:00N 48°03' E 017°11'0 0.0
2018-Jan-07 14:30N 48°03' E 017°11'0 0.0
2018-Jan-07 14:00N 48°03' E 017°11'0 0.0
2018-Jan-07 13:30N 48°03' E 017°11'0 0.0
2018-Jan-07 13:00N 48°03' E 017°11'0 0.0
2018-Jan-07 12:30N 48°03' E 017°11'0 0.0
2018-Jan-07 12:00N 48°03' E 017°11'0 0.0
2018-Jan-07 11:30N 48°03' E 017°11'0 0.0
2018-Jan-07 11:00N 48°03' E 017°11'0 0.0
2018-Jan-07 10:30N 48°03' E 017°11'0 0.0
2018-Jan-07 10:00N 48°03' E 017°11'0 0.0
2018-Jan-07 09:30N 48°03' E 017°11'0 0.0
2018-Jan-07 09:00N 48°03' E 017°11'0 0.0
2018-Jan-07 08:30N 48°03' E 017°11'0 0.0
2018-Jan-07 08:00N 48°03' E 017°11'0 0.0
2018-Jan-07 07:30N 48°03' E 017°11'0 0.0
2018-Jan-07 07:00N 48°03' E 017°11'0 0.0
2018-Jan-07 06:30N 48°03' E 017°11'0 0.0
2018-Jan-07 06:00N 48°03' E 017°11'0 0.0
2018-Jan-07 05:30N 48°03' E 017°11'0 0.0
2018-Jan-07 05:00N 48°03' E 017°11'0 0.0
2018-Jan-07 04:30N 48°03' E 017°11'0 0.0
2018-Jan-07 04:00N 48°03' E 017°11'0 0.0
2018-Jan-07 03:30N 48°03' E 017°11'0 0.0
2018-Jan-07 03:00N 48°03' E 017°11'0 0.0
2018-Jan-07 02:30N 48°03' E 017°11'0 0.0
2018-Jan-07 02:00N 48°03' E 017°11'0 0.0
2018-Jan-07 01:30N 48°03' E 017°11'0 0.0
2018-Jan-07 00:30N 48°03' E 017°11'0 0.0
2018-Jan-07 00:00N 48°03' E 017°11'0 0.0
2018-Jan-06 23:30N 48°03' E 017°11'0 0.0
2018-Jan-06 23:00N 48°03' E 017°11'0 0.0
2018-Jan-06 22:30N 48°03' E 017°11'0 0.0
2018-Jan-06 22:00N 48°03' E 017°11'0 0.0
2018-Jan-06 21:30N 48°03' E 017°11'0 0.0
2018-Jan-06 21:00N 48°03' E 017°11'0 0.0
2018-Jan-06 20:30N 48°03' E 017°11'0 0.0
2018-Jan-06 20:00N 48°03' E 017°11'0 0.0
2018-Jan-06 19:30N 48°03' E 017°11'0 0.0
2018-Jan-06 19:00N 48°03' E 017°11'0 0.0
2018-Jan-06 18:30N 48°03' E 017°11'0 0.0
2018-Jan-06 18:00N 48°03' E 017°11'0 0.0
2018-Jan-06 17:30N 48°03' E 017°11'0 0.0
2018-Jan-06 17:00N 48°03' E 017°11'0 0.0
2018-Jan-06 16:30N 48°03' E 017°11'0 0.0
2018-Jan-06 16:00N 48°03' E 017°11'0 0.0
2018-Jan-06 15:30N 48°03' E 017°11'0 0.0
2018-Jan-06 15:00N 48°03' E 017°11'0 0.0
2018-Jan-06 14:30N 48°03' E 017°11'0 0.0
2018-Jan-06 14:00N 48°03' E 017°11'0 0.0
2018-Jan-06 13:30N 48°03' E 017°11'0 0.0
2018-Jan-06 13:00N 48°03' E 017°11'0 0.0
2018-Jan-06 12:30N 48°03' E 017°11'0 0.0
2018-Jan-06 12:00N 48°03' E 017°11'0 0.0
2018-Jan-06 11:30N 48°03' E 017°11'0 0.0
2018-Jan-06 11:00N 48°03' E 017°11'0 0.0
2018-Jan-06 10:30N 48°03' E 017°11'0 0.0
2018-Jan-06 10:00N 48°03' E 017°11'0 0.0
2018-Jan-06 09:30N 48°03' E 017°11'0 0.2
2018-Jan-06 09:00N 48°03' E 017°11'0 0.3
2018-Jan-06 08:30N 48°03' E 017°11'0 0.0
2018-Jan-06 08:00N 48°03' E 017°11'0 0.0
2018-Jan-06 07:30N 48°03' E 017°11'0 0.0
2018-Jan-06 07:00N 48°03' E 017°11'0 0.0
2018-Jan-06 06:30N 48°03' E 017°11'0 0.0
2018-Jan-06 06:00N 48°03' E 017°11'0 0.0
2018-Jan-06 05:30N 48°03' E 017°11'0 0.0
2018-Jan-06 05:00N 48°03' E 017°11'0 0.0
2018-Jan-06 04:30N 48°03' E 017°11'0 0.0
2018-Jan-06 04:00N 48°03' E 017°11'0 0.0
2018-Jan-06 03:30N 48°03' E 017°11'0 0.0
2018-Jan-06 03:00N 48°03' E 017°11'0 0.0
2018-Jan-06 02:30N 48°03' E 017°11'0 0.0
2018-Jan-06 02:00N 48°03' E 017°11'0 0.0
2018-Jan-06 01:30N 48°03' E 017°11'0 0.0
2018-Jan-06 01:00N 48°03' E 017°11'0 0.0
2018-Jan-06 00:30N 48°03' E 017°11'0 0.2
2018-Jan-06 00:00N 48°03' E 017°11'0 0.0
2018-Jan-05 23:30N 48°03' E 017°11'0 0.0
2018-Jan-05 23:00N 48°03' E 017°11'0 0.0
2018-Jan-05 22:30N 48°03' E 017°11'0 0.0
2018-Jan-05 22:00N 48°03' E 017°11'0 0.0
2018-Jan-05 21:30N 48°03' E 017°11'0 0.0
2018-Jan-05 21:00N 48°03' E 017°11'0 0.0
2018-Jan-05 20:30N 48°03' E 017°11'0 0.0
2018-Jan-05 20:00N 48°03' E 017°11'0 0.0
2018-Jan-05 19:30N 48°03' E 017°11'0 0.0
2018-Jan-05 19:00N 48°03' E 017°11'0 0.0
2018-Jan-05 18:30N 48°03' E 017°11'0 0.0
2018-Jan-05 18:00N 48°03' E 017°11'0 0.0
2018-Jan-05 17:30N 48°03' E 017°11'0 0.0
2018-Jan-05 17:00N 48°03' E 017°11'0 0.0
2018-Jan-05 16:30N 48°03' E 017°11'0 0.0
2018-Jan-05 16:00N 48°03' E 017°11'0 0.0
2018-Jan-05 15:30N 48°03' E 017°11'1 2.4
2018-Jan-05 15:00N 48°03' E 017°12'3 5.2
2018-Jan-05 14:30N 48°01' E 017°16'3 6.4
2018-Jan-05 14:00N 47°60' E 017°20'3 6.4
2018-Jan-05 13:30N 47°58' E 017°24'3 6.4
2018-Jan-05 13:00N 47°56' E 017°27'3 6.6
2018-Jan-05 12:30N 47°54' E 017°31'1 1.8
2018-Jan-05 11:43N 47°53' E 017°33'1 6.2
2018-Jan-05 11:30N 47°52' E 017°34'3 6.2
2018-Jan-05 10:59N 47°49' E 017°37'3 4.6
2018-Jan-05 10:20N 47°47' E 017°40'59 2.1
2018-Jan-04 06:25N 47°38' E 019°07'3 6.1
2018-Jan-04 06:00N 47°36' E 019°05'1 1.6
2018-Jan-04 05:28N 47°35' E 019°04'0 0.0
2018-Jan-04 04:58N 47°35' E 019°04'0 0.0
2018-Jan-04 04:30N 47°35' E 019°04'0 0.0
2018-Jan-04 04:00N 47°35' E 019°04'0 0.0
2018-Jan-04 03:30N 47°35' E 019°04'0 0.0
2018-Jan-04 03:00N 47°35' E 019°04'0 0.0
2018-Jan-04 02:30N 47°35' E 019°04'0 0.0
2018-Jan-04 01:59N 47°35' E 019°04'0 0.0
2018-Jan-04 01:30N 47°35' E 019°04'0 0.0
2018-Jan-04 00:56N 47°35' E 019°04'0 0.0
2018-Jan-04 00:29N 47°35' E 019°04'0 0.0
2018-Jan-03 23:59N 47°35' E 019°04'0 0.0
2018-Jan-03 23:30N 47°35' E 019°04'0 0.0
2018-Jan-03 22:58N 47°35' E 019°04'0 0.0
2018-Jan-03 22:25N 47°35' E 019°04'0 0.0
2018-Jan-03 22:00N 47°35' E 019°04'0 0.0
2018-Jan-03 21:27N 47°35' E 019°04'0 0.0
2018-Jan-03 20:55N 47°35' E 019°04'0 0.0
2018-Jan-03 20:27N 47°35' E 019°04'0 0.0
2018-Jan-03 20:00N 47°35' E 019°04'0 0.0
2018-Jan-03 19:29N 47°35' E 019°04'0 0.0
2018-Jan-03 19:00N 47°35' E 019°04'0 0.0
2018-Jan-03 18:28N 47°35' E 019°04'0 0.0
2018-Jan-03 18:00N 47°35' E 019°04'0 0.0
2018-Jan-03 17:28N 47°35' E 019°04'0 0.0
2018-Jan-03 16:58N 47°35' E 019°04'0 0.0
2018-Jan-03 16:28N 47°35' E 019°04'0 0.0
2018-Jan-03 15:59N 47°35' E 019°04'0 0.1
2018-Jan-03 15:30N 47°35' E 019°04'3 4.9
2018-Jan-03 14:58N 47°32' E 019°03'2 5.5
2018-Jan-03 14:30N 47°30' E 019°03'2 4.7
2018-Jan-03 14:00N 47°28' E 019°04'2 4.9
2018-Jan-03 13:30N 47°25' E 019°03'2 4.7
2018-Jan-03 13:00N 47°23' E 019°01'3 5.5
2018-Jan-03 12:30N 47°22' E 018°57'87 1.8
2018-Jan-01 11:26N 45°55' E 018°48'2 5.8
2018-Jan-01 11:00N 45°53' E 018°50'2 4.7
2018-Jan-01 10:30N 45°51' E 018°51'0 0.1
2018-Jan-01 10:00N 45°50' E 018°51'0 0.0
2018-Jan-01 09:30N 45°50' E 018°51'0 0.1
2018-Jan-01 08:29N 45°50' E 018°51'3 5.9
2018-Jan-01 08:00N 45°48' E 018°51'3 5.4
2018-Jan-01 07:30N 45°45' E 018°54'2 4.0
2018-Jan-01 07:00N 45°43' E 018°54'0 0.0
2018-Jan-01 06:00N 45°43' E 018°54'0 0.0
2018-Jan-01 05:30N 45°43' E 018°54'0 0.0
2018-Jan-01 05:00N 45°43' E 018°54'0 0.0
2018-Jan-01 04:00N 45°43' E 018°54'0 0.0
2018-Jan-01 03:30N 45°43' E 018°54'0 0.0
2018-Jan-01 03:00N 45°43' E 018°54'0 0.0
2018-Jan-01 02:30N 45°43' E 018°54'0 0.0
2018-Jan-01 02:00N 45°43' E 018°54'0 0.0
2018-Jan-01 01:30N 45°43' E 018°54'0 0.0
2018-Jan-01 00:30N 45°43' E 018°54'0 0.0
2017-Dec-31 21:00N 45°43' E 018°54'0 0.0
2017-Dec-31 20:30N 45°43' E 018°54'0 0.0
2017-Dec-31 20:00N 45°43' E 018°54'0 0.0
2017-Dec-31 19:30N 45°43' E 018°54'0 0.0
2017-Dec-31 19:00N 45°43' E 018°54'0 0.0
2017-Dec-31 18:30N 45°43' E 018°54'0 0.0
2017-Dec-31 18:00N 45°43' E 018°54'0 0.0
2017-Dec-31 17:30N 45°43' E 018°54'0 0.0
2017-Dec-31 17:00N 45°43' E 018°54'0 0.0
2017-Dec-31 16:30N 45°43' E 018°54'0 0.0
2017-Dec-31 16:00N 45°43' E 018°54'  
Track history (hours):
 
Tides and Currents Weather Stations Pressure Air Temp Water Temp Dewpoint Dewpoint Depression Visibility Wind Speed Wind Dir Waves Ship Positions

Twister+rt5

Last reported at 2018-Jan-10 15:55 UTC. Time now 2018-Jan-18 00:19 UTC.
Position N 48°11' E 016°28'.

Length 90 m; draft 2.1 m.

Type: Ship. MMSI: 207072346.

Date/timePositionNaut miles runAvg speedWind from/ knotsBaromVisibWave heightAir tempDewpointWater temp
2018-Jan-10 15:55N 48°11' E 016°28'16 2.7
2018-Jan-10 10:02N 48°07' E 016°51'0 2.8
2018-Jan-10 09:59N 48°07' E 016°51'2 2.9
2018-Jan-10 09:25N 48°08' E 016°53'1 3.1
2018-Jan-10 08:59N 48°09' E 016°55'1 2.9
2018-Jan-10 08:30N 48°09' E 016°57'1 2.9
2018-Jan-10 08:00N 48°10' E 016°58'1 2.7
2018-Jan-10 07:30N 48°10' E 016°60'2 3.2
2018-Jan-10 07:00N 48°09' E 017°01'1 2.9
2018-Jan-10 06:30N 48°09' E 017°03'2 3.4
2018-Jan-10 06:00N 48°08' E 017°06'2 3.5
2018-Jan-10 05:30N 48°08' E 017°09'2 3.5
2018-Jan-10 05:01N 48°06' E 017°08'2 4.9
2018-Jan-10 04:30N 48°04' E 017°10'1 1.8
2018-Jan-10 04:00N 48°03' E 017°11'0 0.0
2018-Jan-10 03:30N 48°03' E 017°11'0 0.0
2018-Jan-10 03:00N 48°03' E 017°11'0 0.0
2018-Jan-10 02:30N 48°03' E 017°11'0 0.0
2018-Jan-10 02:00N 48°03' E 017°11'0 0.0
2018-Jan-10 01:30N 48°03' E 017°11'0 0.0
2018-Jan-10 01:00N 48°03' E 017°11'0 0.0
2018-Jan-10 00:30N 48°03' E 017°11'0 0.0
2018-Jan-10 00:00N 48°03' E 017°11'0 0.0
2018-Jan-09 23:30N 48°03' E 017°11'0 0.0
2018-Jan-09 23:00N 48°03' E 017°11'0 0.0
2018-Jan-09 22:30N 48°03' E 017°11'0 0.0
2018-Jan-09 22:00N 48°03' E 017°11'0 0.0
2018-Jan-09 21:30N 48°03' E 017°11'0 0.0
2018-Jan-09 21:00N 48°03' E 017°11'0 0.0
2018-Jan-09 20:30N 48°03' E 017°11'0 0.0
2018-Jan-09 20:00N 48°03' E 017°11'0 0.0
2018-Jan-09 19:30N 48°03' E 017°11'0 0.0
2018-Jan-09 19:00N 48°03' E 017°11'0 0.0
2018-Jan-09 18:30N 48°03' E 017°11'0 0.0
2018-Jan-09 18:00N 48°03' E 017°11'0 0.0
2018-Jan-09 17:30N 48°03' E 017°11'0 0.0
2018-Jan-09 17:00N 48°03' E 017°11'0 0.0
2018-Jan-09 16:30N 48°03' E 017°11'0 0.0
2018-Jan-09 16:00N 48°03' E 017°11'0 0.0
2018-Jan-09 15:30N 48°03' E 017°11'0 0.0
2018-Jan-09 15:00N 48°03' E 017°11'0 0.0
2018-Jan-09 14:30N 48°03' E 017°11'0 0.0
2018-Jan-09 14:00N 48°03' E 017°11'0 0.0
2018-Jan-09 13:30N 48°03' E 017°11'0 0.0
2018-Jan-09 13:00N 48°03' E 017°11'0 0.0
2018-Jan-09 12:30N 48°03' E 017°11'0 0.0
2018-Jan-09 12:00N 48°03' E 017°11'0 0.0
2018-Jan-09 11:30N 48°03' E 017°11'0 0.0
2018-Jan-09 11:00N 48°03' E 017°11'0 0.0
2018-Jan-09 10:30N 48°03' E 017°11'0 0.0
2018-Jan-09 10:00N 48°03' E 017°11'0 0.0
2018-Jan-09 09:30N 48°03' E 017°11'0 0.0
2018-Jan-09 09:00N 48°03' E 017°11'0 0.0
2018-Jan-09 08:30N 48°03' E 017°11'0 0.0
2018-Jan-09 08:00N 48°03' E 017°11'0 0.0
2018-Jan-09 07:30N 48°03' E 017°11'0 0.0
2018-Jan-09 07:00N 48°03' E 017°11'0 0.0
2018-Jan-09 06:30N 48°03' E 017°11'0 0.0
2018-Jan-09 06:00N 48°03' E 017°11'0 0.0
2018-Jan-09 05:30N 48°03' E 017°11'0 0.0
2018-Jan-09 05:00N 48°03' E 017°11'0 0.0
2018-Jan-09 04:30N 48°03' E 017°11'0 0.0
2018-Jan-09 04:00N 48°03' E 017°11'0 0.0
2018-Jan-09 03:30N 48°03' E 017°11'0 0.0
2018-Jan-09 03:00N 48°03' E 017°11'0 0.0
2018-Jan-09 02:30N 48°03' E 017°11'0 0.0
2018-Jan-09 02:00N 48°03' E 017°11'0 0.0
2018-Jan-09 01:30N 48°03' E 017°11'0 0.0
2018-Jan-09 01:00N 48°03' E 017°11'0 0.0
2018-Jan-09 00:30N 48°03' E 017°11'0 0.0
2018-Jan-09 00:00N 48°03' E 017°11'0 0.0
2018-Jan-08 23:30N 48°03' E 017°11'0 0.0
2018-Jan-08 23:00N 48°03' E 017°11'0 0.0
2018-Jan-08 22:30N 48°03' E 017°11'0 0.0
2018-Jan-08 22:00N 48°03' E 017°11'0 0.0
2018-Jan-08 21:30N 48°03' E 017°11'0 0.0
2018-Jan-08 21:00N 48°03' E 017°11'0 0.0
2018-Jan-08 20:30N 48°03' E 017°11'0 0.0
2018-Jan-08 20:00N 48°03' E 017°11'0 0.0
2018-Jan-08 19:30N 48°03' E 017°11'0 0.0
2018-Jan-08 19:00N 48°03' E 017°11'0 0.0
2018-Jan-08 18:30N 48°03' E 017°11'0 0.0
2018-Jan-08 18:00N 48°03' E 017°11'0 0.0
2018-Jan-08 17:30N 48°03' E 017°11'0 0.0
2018-Jan-08 17:00N 48°03' E 017°11'0 0.0
2018-Jan-08 16:30N 48°03' E 017°11'0 0.0
2018-Jan-08 16:00N 48°03' E 017°11'0 0.0
2018-Jan-08 15:30N 48°03' E 017°11'0 0.0
2018-Jan-08 15:00N 48°03' E 017°11'0 0.0
2018-Jan-08 14:30N 48°03' E 017°11'0 0.0
2018-Jan-08 14:00N 48°03' E 017°11'0 0.0
2018-Jan-08 13:30N 48°03' E 017°11'0 0.0
2018-Jan-08 13:00N 48°03' E 017°11'0 0.0
2018-Jan-08 12:30N 48°03' E 017°11'0 0.0
2018-Jan-08 12:00N 48°03' E 017°11'0 0.0
2018-Jan-08 11:30N 48°03' E 017°11'0 0.0
2018-Jan-08 11:00N 48°03' E 017°11'0 0.0
2018-Jan-08 10:30N 48°03' E 017°11'0 0.0
2018-Jan-08 10:00N 48°03' E 017°11'0 0.0
2018-Jan-08 09:30N 48°03' E 017°11'0 0.0
2018-Jan-08 09:00N 48°03' E 017°11'0 0.0
2018-Jan-08 08:30N 48°03' E 017°11'0 0.0
2018-Jan-08 08:00N 48°03' E 017°11'0 0.0
2018-Jan-08 07:30N 48°03' E 017°11'0 0.0
2018-Jan-08 07:00N 48°03' E 017°11'0 0.0
2018-Jan-08 06:30N 48°03' E 017°11'0 0.0
2018-Jan-08 06:00N 48°03' E 017°11'0 0.0
2018-Jan-08 05:30N 48°03' E 017°11'0 0.0
2018-Jan-08 05:00N 48°03' E 017°11'0 0.0
2018-Jan-08 04:30N 48°03' E 017°11'0 0.0
2018-Jan-08 04:00N 48°03' E 017°11'0 0.0
2018-Jan-08 03:30N 48°03' E 017°11'0 0.0
2018-Jan-08 03:00N 48°03' E 017°11'0 0.0
2018-Jan-08 02:30N 48°03' E 017°11'0 0.0
2018-Jan-08 02:00N 48°03' E 017°11'0 0.0
2018-Jan-08 01:30N 48°03' E 017°11'0 0.0
2018-Jan-08 01:00N 48°03' E 017°11'0 0.0
2018-Jan-08 00:30N 48°03' E 017°11'0 0.0
2018-Jan-08 00:00N 48°03' E 017°11'0 0.0
2018-Jan-07 23:30N 48°03' E 017°11'0 0.0
2018-Jan-07 23:00N 48°03' E 017°11'0 0.0
2018-Jan-07 22:30N 48°03' E 017°11'0 0.0
2018-Jan-07 22:00N 48°03' E 017°11'0 0.0
2018-Jan-07 21:30N 48°03' E 017°11'0 0.0
2018-Jan-07 21:00N 48°03' E 017°11'0 0.0
2018-Jan-07 20:30N 48°03' E 017°11'0 0.0
2018-Jan-07 20:00N 48°03' E 017°11'0 0.0
2018-Jan-07 19:30N 48°03' E 017°11'0 0.0
2018-Jan-07 19:00N 48°03' E 017°11'0 0.0
2018-Jan-07 18:30N 48°03' E 017°11'0 0.0
2018-Jan-07 18:00N 48°03' E 017°11'0 0.0
2018-Jan-07 17:30N 48°03' E 017°11'0 0.0
2018-Jan-07 17:00N 48°03' E 017°11'0 0.0
2018-Jan-07 16:30N 48°03' E 017°11'0 0.0
2018-Jan-07 16:00N 48°03' E 017°11'0 0.0
2018-Jan-07 15:30N 48°03' E 017°11'0 0.0
2018-Jan-07 15:00N 48°03' E 017°11'0 0.0
2018-Jan-07 14:30N 48°03' E 017°11'0 0.0
2018-Jan-07 14:00N 48°03' E 017°11'0 0.0
2018-Jan-07 13:30N 48°03' E 017°11'0 0.0
2018-Jan-07 13:00N 48°03' E 017°11'0 0.0
2018-Jan-07 12:30N 48°03' E 017°11'0 0.0
2018-Jan-07 12:00N 48°03' E 017°11'0 0.0
2018-Jan-07 11:30N 48°03' E 017°11'0 0.0
2018-Jan-07 11:00N 48°03' E 017°11'0 0.0
2018-Jan-07 10:30N 48°03' E 017°11'0 0.0
2018-Jan-07 10:00N 48°03' E 017°11'0 0.0
2018-Jan-07 09:30N 48°03' E 017°11'0 0.0
2018-Jan-07 09:00N 48°03' E 017°11'0 0.0
2018-Jan-07 08:30N 48°03' E 017°11'0 0.0
2018-Jan-07 08:00N 48°03' E 017°11'0 0.0
2018-Jan-07 07:30N 48°03' E 017°11'0 0.0
2018-Jan-07 07:00N 48°03' E 017°11'0 0.0
2018-Jan-07 06:30N 48°03' E 017°11'0 0.0
2018-Jan-07 06:00N 48°03' E 017°11'0 0.0
2018-Jan-07 05:30N 48°03' E 017°11'0 0.0
2018-Jan-07 05:00N 48°03' E 017°11'0 0.0
2018-Jan-07 04:30N 48°03' E 017°11'0 0.0
2018-Jan-07 04:00N 48°03' E 017°11'0 0.0
2018-Jan-07 03:30N 48°03' E 017°11'0 0.0
2018-Jan-07 03:00N 48°03' E 017°11'0 0.0
2018-Jan-07 02:30N 48°03' E 017°11'0 0.0
2018-Jan-07 02:00N 48°03' E 017°11'0 0.0
2018-Jan-07 01:30N 48°03' E 017°11'0 0.0
2018-Jan-07 00:30N 48°03' E 017°11'0 0.0
2018-Jan-07 00:00N 48°03' E 017°11'0 0.0
2018-Jan-06 23:30N 48°03' E 017°11'0 0.0
2018-Jan-06 23:00N 48°03' E 017°11'0 0.0
2018-Jan-06 22:30N 48°03' E 017°11'0 0.0
2018-Jan-06 22:00N 48°03' E 017°11'0 0.0
2018-Jan-06 21:30N 48°03' E 017°11'0 0.0
2018-Jan-06 21:00N 48°03' E 017°11'0 0.0
2018-Jan-06 20:30N 48°03' E 017°11'0 0.0
2018-Jan-06 20:00N 48°03' E 017°11'0 0.0
2018-Jan-06 19:30N 48°03' E 017°11'0 0.0
2018-Jan-06 19:00N 48°03' E 017°11'0 0.0
2018-Jan-06 18:30N 48°03' E 017°11'0 0.0
2018-Jan-06 18:00N 48°03' E 017°11'0 0.0
2018-Jan-06 17:30N 48°03' E 017°11'0 0.0
2018-Jan-06 17:00N 48°03' E 017°11'0 0.0
2018-Jan-06 16:30N 48°03' E 017°11'0 0.0
2018-Jan-06 16:00N 48°03' E 017°11'0 0.0
2018-Jan-06 15:30N 48°03' E 017°11'0 0.0
2018-Jan-06 15:00N 48°03' E 017°11'0 0.0
2018-Jan-06 14:30N 48°03' E 017°11'0 0.0
2018-Jan-06 14:00N 48°03' E 017°11'0 0.0
2018-Jan-06 13:30N 48°03' E 017°11'0 0.0
2018-Jan-06 13:00N 48°03' E 017°11'0 0.0
2018-Jan-06 12:30N 48°03' E 017°11'0 0.0
2018-Jan-06 12:00N 48°03' E 017°11'0 0.0
2018-Jan-06 11:30N 48°03' E 017°11'0 0.0
2018-Jan-06 11:00N 48°03' E 017°11'0 0.0
2018-Jan-06 10:30N 48°03' E 017°11'0 0.0
2018-Jan-06 10:00N 48°03' E 017°11'0 0.0
2018-Jan-06 09:30N 48°03' E 017°11'0 0.2
2018-Jan-06 09:00N 48°03' E 017°11'0 0.3
2018-Jan-06 08:30N 48°03' E 017°11'0 0.0
2018-Jan-06 08:00N 48°03' E 017°11'0 0.0
2018-Jan-06 07:30N 48°03' E 017°11'0 0.0
2018-Jan-06 07:00N 48°03' E 017°11'0 0.0
2018-Jan-06 06:30N 48°03' E 017°11'0 0.0
2018-Jan-06 06:00N 48°03' E 017°11'0 0.0
2018-Jan-06 05:30N 48°03' E 017°11'0 0.0
2018-Jan-06 05:00N 48°03' E 017°11'0 0.0
2018-Jan-06 04:30N 48°03' E 017°11'0 0.0
2018-Jan-06 04:00N 48°03' E 017°11'0 0.0
2018-Jan-06 03:30N 48°03' E 017°11'0 0.0
2018-Jan-06 03:00N 48°03' E 017°11'0 0.0
2018-Jan-06 02:30N 48°03' E 017°11'0 0.0
2018-Jan-06 02:00N 48°03' E 017°11'0 0.0
2018-Jan-06 01:30N 48°03' E 017°11'0 0.0
2018-Jan-06 01:00N 48°03' E 017°11'0 0.0
2018-Jan-06 00:30N 48°03' E 017°11'0 0.2
2018-Jan-06 00:00N 48°03' E 017°11'0 0.0
2018-Jan-05 23:30N 48°03' E 017°11'0 0.0
2018-Jan-05 23:00N 48°03' E 017°11'0 0.0
2018-Jan-05 22:30N 48°03' E 017°11'0 0.0
2018-Jan-05 22:00N 48°03' E 017°11'0 0.0
2018-Jan-05 21:30N 48°03' E 017°11'0 0.0
2018-Jan-05 21:00N 48°03' E 017°11'0 0.0
2018-Jan-05 20:30N 48°03' E 017°11'0 0.0
2018-Jan-05 20:00N 48°03' E 017°11'0 0.0
2018-Jan-05 19:30N 48°03' E 017°11'0 0.0
2018-Jan-05 19:00N 48°03' E 017°11'0 0.0
2018-Jan-05 18:30N 48°03' E 017°11'0 0.0
2018-Jan-05 18:00N 48°03' E 017°11'0 0.0
2018-Jan-05 17:30N 48°03' E 017°11'0 0.0
2018-Jan-05 17:00N 48°03' E 017°11'0 0.0
2018-Jan-05 16:30N 48°03' E 017°11'0 0.0
2018-Jan-05 16:00N 48°03' E 017°11'0 0.0
2018-Jan-05 15:30N 48°03' E 017°11'1 2.4
2018-Jan-05 15:00N 48°03' E 017°12'3 5.2
2018-Jan-05 14:30N 48°01' E 017°16'3 6.4
2018-Jan-05 14:00N 47°60' E 017°20'3 6.4
2018-Jan-05 13:30N 47°58' E 017°24'3 6.4
2018-Jan-05 13:00N 47°56' E 017°27'3 6.6
2018-Jan-05 12:30N 47°54' E 017°31'1 1.8
2018-Jan-05 11:43N 47°53' E 017°33'1 6.2
2018-Jan-05 11:30N 47°52' E 017°34'3 6.2
2018-Jan-05 10:59N 47°49' E 017°37'3 4.6
2018-Jan-05 10:20N 47°47' E 017°40'59 2.1
2018-Jan-04 06:25N 47°38' E 019°07'3 6.1
2018-Jan-04 06:00N 47°36' E 019°05'1 1.6
2018-Jan-04 05:28N 47°35' E 019°04'0 0.0
2018-Jan-04 04:58N 47°35' E 019°04'0 0.0
2018-Jan-04 04:30N 47°35' E 019°04'0 0.0
2018-Jan-04 04:00N 47°35' E 019°04'0 0.0
2018-Jan-04 03:30N 47°35' E 019°04'0 0.0
2018-Jan-04 03:00N 47°35' E 019°04'0 0.0
2018-Jan-04 02:30N 47°35' E 019°04'0 0.0
2018-Jan-04 01:59N 47°35' E 019°04'0 0.0
2018-Jan-04 01:30N 47°35' E 019°04'0 0.0
2018-Jan-04 00:56N 47°35' E 019°04'0 0.0
2018-Jan-04 00:29N 47°35' E 019°04'0 0.0
2018-Jan-03 23:59N 47°35' E 019°04'0 0.0
2018-Jan-03 23:30N 47°35' E 019°04'0 0.0
2018-Jan-03 22:58N 47°35' E 019°04'0 0.0
2018-Jan-03 22:25N 47°35' E 019°04'0 0.0
2018-Jan-03 22:00N 47°35' E 019°04'0 0.0
2018-Jan-03 21:27N 47°35' E 019°04'0 0.0
2018-Jan-03 20:55N 47°35' E 019°04'0 0.0
2018-Jan-03 20:27N 47°35' E 019°04'0 0.0
2018-Jan-03 20:00N 47°35' E 019°04'0 0.0
2018-Jan-03 19:29N 47°35' E 019°04'0 0.0
2018-Jan-03 19:00N 47°35' E 019°04'0 0.0
2018-Jan-03 18:28N 47°35' E 019°04'0 0.0
2018-Jan-03 18:00N 47°35' E 019°04'0 0.0
2018-Jan-03 17:28N 47°35' E 019°04'0 0.0
2018-Jan-03 16:58N 47°35' E 019°04'0 0.0
2018-Jan-03 16:28N 47°35' E 019°04'0 0.0
2018-Jan-03 15:59N 47°35' E 019°04'0 0.1
2018-Jan-03 15:30N 47°35' E 019°04'3 4.9
2018-Jan-03 14:58N 47°32' E 019°03'2 5.5
2018-Jan-03 14:30N 47°30' E 019°03'2 4.7
2018-Jan-03 14:00N 47°28' E 019°04'2 4.9
2018-Jan-03 13:30N 47°25' E 019°03'2 4.7
2018-Jan-03 13:00N 47°23' E 019°01'3 5.5
2018-Jan-03 12:30N 47°22' E 018°57'87 1.8
2018-Jan-01 11:26N 45°55' E 018°48'2 5.8
2018-Jan-01 11:00N 45°53' E 018°50'2 4.7
2018-Jan-01 10:30N 45°51' E 018°51'0 0.1
2018-Jan-01 10:00N 45°50' E 018°51'0 0.0
2018-Jan-01 09:30N 45°50' E 018°51'0 0.1
2018-Jan-01 08:29N 45°50' E 018°51'3 5.9
2018-Jan-01 08:00N 45°48' E 018°51'3 5.4
2018-Jan-01 07:30N 45°45' E 018°54'2 4.0
2018-Jan-01 07:00N 45°43' E 018°54'0 0.0
2018-Jan-01 06:00N 45°43' E 018°54'0 0.0
2018-Jan-01 05:30N 45°43' E 018°54'0 0.0
2018-Jan-01 05:00N 45°43' E 018°54'0 0.0
2018-Jan-01 04:00N 45°43' E 018°54'0 0.0
2018-Jan-01 03:30N 45°43' E 018°54'0 0.0
2018-Jan-01 03:00N 45°43' E 018°54'0 0.0
2018-Jan-01 02:30N 45°43' E 018°54'0 0.0
2018-Jan-01 02:00N 45°43' E 018°54'0 0.0
2018-Jan-01 01:30N 45°43' E 018°54'0 0.0
2018-Jan-01 00:30N 45°43' E 018°54'0 0.0
2017-Dec-31 21:00N 45°43' E 018°54'0 0.0
2017-Dec-31 20:30N 45°43' E 018°54'0 0.0
2017-Dec-31 20:00N 45°43' E 018°54'0 0.0
2017-Dec-31 19:30N 45°43' E 018°54'0 0.0
2017-Dec-31 19:00N 45°43' E 018°54'0 0.0
2017-Dec-31 18:30N 45°43' E 018°54'0 0.0
2017-Dec-31 18:00N 45°43' E 018°54'0 0.0
2017-Dec-31 17:30N 45°43' E 018°54'0 0.0
2017-Dec-31 17:00N 45°43' E 018°54'0 0.0
2017-Dec-31 16:30N 45°43' E 018°54'0 0.0
2017-Dec-31 16:00N 45°43' E 018°54'  

Dump ship's entire track history